Time;durP1;ratioP1;P1;durP2;ratioP2;P2;SDS_P1;SDS_P2;PMS_P1;PMS_P2;Temp;Humidity;BMP_temperature;BMP_pressure;BME280_temperature;BME280_humidity;BME280_pressure;Samples;Min_cycle;Max_cycle;Signal;HPM_P1;HPM_P2
2021/07/23 00:02:19;;;;;;;;;;;24.30;68.50;;;;;;5205203;28;21402;-60
2021/07/23 00:04:52;;;;;;;;;;;24.30;68.50;;;;;;5203834;28;20829;-58
2021/07/23 00:07:24;;;;;;;;;;;24.30;68.50;;;;;;5208509;28;20368;-59
2021/07/23 00:09:56;;;;;;;;;;;24.30;68.40;;;;;;5203083;28;19952;-60
2021/07/23 00:12:28;;;;;;;;;;;24.20;68.40;;;;;;5206682;28;19932;-59
2021/07/23 00:15:00;;;;;;;;;;;24.20;68.50;;;;;;5208033;28;19935;-60
2021/07/23 00:17:32;;;;;;;;;;;24.30;68.50;;;;;;5207019;28;19928;-59
2021/07/23 00:20:06;;;;;;;;;;;24.20;68.40;;;;;;5203093;28;19937;-59
2021/07/23 00:22:38;;;;;;;;;;;24.20;68.40;;;;;;5206571;28;19924;-57
2021/07/23 00:25:11;;;;;;;;;;;24.20;68.40;;;;;;5209018;28;19936;-60
2021/07/23 00:27:43;;;;;;;;;;;24.20;68.30;;;;;;5204829;28;19925;-60
2021/07/23 00:30:15;;;;;;;;;;;24.20;68.30;;;;;;5194691;28;19932;-59
2021/07/23 00:32:47;;;;;;;;;;;24.20;68.30;;;;;;5205079;28;19925;-58
2021/07/23 00:35:20;;;;;;;;;;;24.20;68.30;;;;;;5204327;28;19929;-59
2021/07/23 00:37:53;;;;;;;;;;;24.20;68.20;;;;;;5204367;28;19929;-58
2021/07/23 00:40:25;;;;;;;;;;;24.10;68.20;;;;;;5202522;28;19925;-58
2021/07/23 00:42:58;;;;;;;;;;;24.10;68.10;;;;;;5204852;28;19936;-59
2021/07/23 00:45:30;;;;;;;;;;;24.10;68.10;;;;;;5202821;28;19936;-58
2021/07/23 00:48:04;;;;;;;;;;;24.20;68.10;;;;;;5186040;28;20305;-60
2021/07/23 00:50:37;;;;;;;;;;;24.10;68.10;;;;;;5190072;28;19932;-55
2021/07/23 00:53:10;;;;;;;;;;;24.20;68.10;;;;;;5191406;28;20402;-59
2021/07/23 00:55:47;;;;;;;;;;;24.10;68.00;;;;;;5181619;28;19925;-59
2021/07/23 00:58:19;;;;;;;;;;;24.10;68.10;;;;;;5201687;28;19929;-60
2021/07/23 01:00:53;;;;;;;;;;;24.10;68.00;;;;;;5183002;28;19930;-60
2021/07/23 01:03:38;;;;;;;;;;;24.10;68.10;;;;;;5202212;28;19924;-60
2021/07/23 01:06:13;;;;;;;;;;;24.10;68.10;;;;;;5213321;28;19928;-58
2021/07/23 01:08:46;;;;;;;;;;;24.10;68.10;;;;;;5187064;28;19932;-56
2021/07/23 01:11:21;;;;;;;;;;;24.10;68.70;;;;;;5204692;28;19940;-59
2021/07/23 01:14:00;;;;;;;;;;;24.10;68.10;;;;;;5206314;28;19925;-60
2021/07/23 01:16:33;;;;;;;;;;;24.10;68.10;;;;;;5207913;28;19932;-57
2021/07/23 01:19:10;;;;;;;;;;;24.10;68.10;;;;;;5221011;28;19928;-56
2021/07/23 01:21:45;;;;;;;;;;;24.00;68.10;;;;;;5204513;28;19924;-58
2021/07/23 01:24:19;;;;;;;;;;;24.00;68.10;;;;;;5191013;28;19932;-58
2021/07/23 01:26:53;;;;;;;;;;;24.00;68.10;;;;;;5203302;28;19924;-58
2021/07/23 01:29:43;;;;;;;;;;;24.00;68.10;;;;;;5203166;28;19936;-58
2021/07/23 01:32:17;;;;;;;;;;;24.00;68.00;;;;;;5194935;28;20416;-57
2021/07/23 01:34:50;;;;;;;;;;;24.00;68.00;;;;;;5202484;28;19936;-56
2021/07/23 01:37:22;;;;;;;;;;;24.00;68.10;;;;;;5185717;28;19925;-59
2021/07/23 01:39:55;;;;;;;;;;;24.00;68.10;;;;;;5194544;28;20510;-59
2021/07/23 01:42:30;;;;;;;;;;;24.00;68.10;;;;;;5190919;28;20281;-59
2021/07/23 01:45:03;;;;;;;;;;;24.00;68.10;;;;;;5204410;28;19927;-59
2021/07/23 01:47:35;;;;;;;;;;;24.00;68.10;;;;;;5205420;28;20332;-59
2021/07/23 01:50:08;;;;;;;;;;;24.00;68.20;;;;;;5215963;28;19932;-59
2021/07/23 01:52:40;;;;;;;;;;;24.00;68.20;;;;;;5202780;28;19925;-58
2021/07/23 01:55:13;;;;;;;;;;;24.00;68.10;;;;;;5192091;28;20469;-59
2021/07/23 01:57:50;;;;;;;;;;;23.90;68.10;;;;;;5189341;28;19925;-59
2021/07/23 02:00:22;;;;;;;;;;;23.90;68.20;;;;;;5182839;28;19936;-59
2021/07/23 02:02:55;;;;;;;;;;;23.90;68.80;;;;;;5190765;28;19936;-59
2021/07/23 02:05:37;;;;;;;;;;;24.00;68.20;;;;;;5203455;28;19925;-58
2021/07/23 02:08:10;;;;;;;;;;;23.90;68.10;;;;;;5205144;28;20420;-58
2021/07/23 02:10:42;;;;;;;;;;;23.90;68.10;;;;;;5202000;28;19929;-59
2021/07/23 02:13:14;;;;;;;;;;;23.90;68.10;;;;;;5181654;28;20153;-60
2021/07/23 02:15:50;;;;;;;;;;;23.90;68.10;;;;;;5193784;28;19936;-60
2021/07/23 02:18:26;;;;;;;;;;;23.90;68.10;;;;;;5200485;28;19921;-57
2021/07/23 02:20:59;;;;;;;;;;;23.90;68.20;;;;;;5204928;28;19931;-61
2021/07/23 02:23:32;;;;;;;;;;;23.90;68.20;;;;;;5195337;28;19928;-58
2021/07/23 02:26:14;;;;;;;;;;;23.90;68.20;;;;;;5204659;28;19921;-58
2021/07/23 02:28:48;;;;;;;;;;;23.90;68.30;;;;;;5175170;28;19932;-59
2021/07/23 02:31:20;;;;;;;;;;;23.90;68.30;;;;;;5197595;28;19928;-58
2021/07/23 02:34:03;;;;;;;;;;;23.90;68.30;;;;;;5199276;28;20309;-54
2021/07/23 02:36:39;;;;;;;;;;;23.90;68.30;;;;;;5194902;28;19960;-59
2021/07/23 02:39:14;;;;;;;;;;;23.80;68.30;;;;;;5222719;28;20416;-57
2021/07/23 02:41:53;;;;;;;;;;;23.90;68.30;;;;;;5206980;28;19931;-58
2021/07/23 02:44:26;;;;;;;;;;;23.80;68.30;;;;;;5206613;28;19932;-59
2021/07/23 02:46:58;;;;;;;;;;;23.90;68.30;;;;;;5205263;28;19932;-57
2021/07/23 02:49:34;;;;;;;;;;;23.90;68.30;;;;;;5221759;28;19932;-59
2021/07/23 02:52:07;;;;;;;;;;;23.90;68.40;;;;;;5208588;28;20314;-58
2021/07/23 02:54:44;;;;;;;;;;;23.90;68.40;;;;;;5195579;28;19929;-56
2021/07/23 02:57:18;;;;;;;;;;;23.80;68.30;;;;;;5202071;28;20294;-59
2021/07/23 02:59:52;;;;;;;;;;;23.90;68.40;;;;;;5202275;28;19929;-60
2021/07/23 03:02:24;;;;;;;;;;;23.80;68.30;;;;;;5202305;28;20416;-60
2021/07/23 03:04:58;;;;;;;;;;;23.80;68.30;;;;;;5218236;28;19932;-60
2021/07/23 03:07:30;;;;;;;;;;;23.80;68.30;;;;;;5203947;28;19925;-58
2021/07/23 03:10:03;;;;;;;;;;;23.80;68.30;;;;;;5218202;28;19925;-57
2021/07/23 03:12:36;;;;;;;;;;;23.80;68.30;;;;;;5209286;28;20387;-56
2021/07/23 03:15:09;;;;;;;;;;;23.80;68.20;;;;;;5205648;28;19921;-57
2021/07/23 03:17:41;;;;;;;;;;;23.80;68.30;;;;;;5206911;28;19951;-57
2021/07/23 03:20:14;;;;;;;;;;;23.80;68.30;;;;;;5195313;28;19931;-58
2021/07/23 03:22:46;;;;;;;;;;;23.80;68.30;;;;;;5189221;28;20309;-56
2021/07/23 03:25:42;;;;;;;;;;;23.80;68.30;;;;;;5183179;28;20323;-61
2021/07/23 03:28:25;;;;;;;;;;;23.80;68.30;;;;;;5187489;28;19925;-58
2021/07/23 03:31:10;;;;;;;;;;;23.80;68.30;;;;;;5184780;28;20401;-57
2021/07/23 03:33:43;;;;;;;;;;;23.80;68.30;;;;;;5198893;28;19925;-59
2021/07/23 03:36:18;;;;;;;;;;;23.80;68.40;;;;;;5192210;28;20430;-58
2021/07/23 03:38:55;;;;;;;;;;;23.70;68.30;;;;;;5198380;28;19924;-57
2021/07/23 03:41:27;;;;;;;;;;;23.80;68.40;;;;;;5204158;28;19952;-58
2021/07/23 03:44:04;;;;;;;;;;;23.80;68.40;;;;;;5190800;28;19929;-58
2021/07/23 03:46:39;;;;;;;;;;;23.80;68.40;;;;;;5193180;28;20325;-58
2021/07/23 03:49:11;;;;;;;;;;;23.80;68.40;;;;;;5182790;28;19932;-58
2021/07/23 03:51:49;;;;;;;;;;;23.80;68.40;;;;;;5219586;28;19936;-58
2021/07/23 03:54:26;;;;;;;;;;;23.80;68.40;;;;;;5192505;28;19921;-60
2021/07/23 03:57:02;;;;;;;;;;;23.70;68.30;;;;;;5191919;28;19932;-58
2021/07/23 03:59:35;;;;;;;;;;;23.80;68.40;;;;;;5201542;28;20436;-58
2021/07/23 04:02:07;;;;;;;;;;;23.70;68.40;;;;;;5185147;28;20424;-57
2021/07/23 04:04:40;;;;;;;;;;;23.70;68.40;;;;;;5187607;28;20320;-58
2021/07/23 04:07:13;;;;;;;;;;;23.70;68.30;;;;;;5197500;28;19951;-60
2021/07/23 04:09:47;;;;;;;;;;;23.70;68.40;;;;;;5203691;28;19929;-58
2021/07/23 04:12:21;;;;;;;;;;;23.70;68.40;;;;;;5174006;28;20305;-59
2021/07/23 04:14:54;;;;;;;;;;;23.70;68.40;;;;;;5188574;28;19921;-58
2021/07/23 04:17:26;;;;;;;;;;;23.70;68.50;;;;;;5188830;28;19931;-59
2021/07/23 04:20:03;;;;;;;;;;;23.70;68.60;;;;;;5186445;28;19932;-58
2021/07/23 04:22:36;;;;;;;;;;;23.70;68.70;;;;;;5193902;28;19928;-59
2021/07/23 04:25:15;;;;;;;;;;;23.70;68.70;;;;;;5158413;28;19929;-58
2021/07/23 04:27:48;;;;;;;;;;;23.80;68.80;;;;;;5201206;28;19925;-59
2021/07/23 04:30:25;;;;;;;;;;;23.70;68.80;;;;;;5197785;28;19925;-56
2021/07/23 04:33:16;;;;;;;;;;;23.70;68.80;;;;;;5201970;28;19924;-59
2021/07/23 04:36:34;;;;;;;;;;;23.80;68.90;;;;;;5203626;28;19925;-58
2021/07/23 04:39:39;;;;;;;;;;;23.70;68.90;;;;;;5188062;28;19925;-57
2021/07/23 04:42:13;;;;;;;;;;;23.70;68.90;;;;;;5185111;28;20389;-58
2021/07/23 04:44:46;;;;;;;;;;;23.70;68.90;;;;;;5203893;28;20480;-57
2021/07/23 04:47:19;;;;;;;;;;;23.70;69.00;;;;;;5189534;28;19929;-58
2021/07/23 04:49:53;;;;;;;;;;;23.70;69.00;;;;;;5198928;28;19929;-58
2021/07/23 04:52:45;;;;;;;;;;;23.70;69.10;;;;;;5205562;28;19924;-60
2021/07/23 04:55:54;;;;;;;;;;;23.70;69.10;;;;;;5201751;28;19967;-58
2021/07/23 04:58:33;;;;;;;;;;;23.70;69.10;;;;;;5199944;28;19928;-58
2021/07/23 05:01:05;;;;;;;;;;;23.80;69.20;;;;;;5196182;28;19932;-56
2021/07/23 05:03:38;;;;;;;;;;;23.80;69.20;;;;;;5192165;28;19924;-58
2021/07/23 05:06:11;;;;;;;;;;;23.70;68.90;;;;;;5173331;28;21984;-60
2021/07/23 05:08:44;;;;;;;;;;;23.70;68.40;;;;;;5171244;28;19975;-57
2021/07/23 05:11:17;;;;;;;;;;;23.60;68.30;;;;;;5190530;28;19929;-59
2021/07/23 05:13:56;;;;;;;;;;;23.60;68.40;;;;;;5171785;28;19976;-59
2021/07/23 05:16:28;;;;;;;;;;;23.50;68.60;;;;;;5193444;28;25028;-58
2021/07/23 05:19:01;;;;;;;;;;;23.40;68.70;;;;;;5189146;28;19924;-60
2021/07/23 05:21:34;;;;;;;;;;;23.50;68.90;;;;;;5177652;28;20905;-60
2021/07/23 05:24:07;;;;;;;;;;;23.40;69.00;;;;;;5177434;28;19929;-60
2021/07/23 05:26:39;;;;;;;;;;;23.30;69.10;;;;;;5179465;28;19924;-57
2021/07/23 05:29:11;;;;;;;;;;;23.30;69.30;;;;;;5182962;28;19924;-59
2021/07/23 05:31:44;;;;;;;;;;;23.20;69.30;;;;;;5173820;28;19929;-60
2021/07/23 05:34:16;;;;;;;;;;;23.10;69.30;;;;;;5178942;28;20275;-58
2021/07/23 05:36:48;;;;;;;;;;;23.10;69.40;;;;;;5169112;28;19924;-58
2021/07/23 05:39:21;;;;;;;;;;;23.10;69.70;;;;;;5182979;28;19929;-59
2021/07/23 05:41:53;;;;;;;;;;;23.10;69.90;;;;;;5180374;28;19931;-59
2021/07/23 05:44:29;;;;;;;;;;;23.00;70.40;;;;;;5195096;28;20400;-58
2021/07/23 05:47:01;;;;;;;;;;;23.00;70.50;;;;;;5199464;28;19925;-60
2021/07/23 05:49:33;;;;;;;;;;;23.00;70.60;;;;;;5200542;28;19979;-59
2021/07/23 05:52:06;;;;;;;;;;;23.10;70.80;;;;;;5196523;28;19929;-61
2021/07/23 05:54:38;;;;;;;;;;;23.00;70.80;;;;;;5185544;28;19928;-58
2021/07/23 05:57:10;;;;;;;;;;;23.00;71.00;;;;;;5182061;28;21073;-59
2021/07/23 05:59:45;;;;;;;;;;;23.00;71.40;;;;;;5187655;28;20394;-56
2021/07/23 06:02:17;;;;;;;;;;;23.00;71.70;;;;;;5195418;28;19925;-60
2021/07/23 06:04:49;;;;;;;;;;;23.00;72.10;;;;;;5192288;28;20301;-59
2021/07/23 06:07:21;;;;;;;;;;;23.00;72.40;;;;;;5200645;28;20309;-60
2021/07/23 06:09:54;;;;;;;;;;;23.00;72.90;;;;;;5201536;28;19924;-58
2021/07/23 06:12:26;;;;;;;;;;;23.00;72.80;;;;;;5200364;28;19925;-59
2021/07/23 06:14:58;;;;;;;;;;;23.00;72.10;;;;;;5197293;28;19929;-56
2021/07/23 06:17:30;;;;;;;;;;;23.00;71.80;;;;;;5199491;28;19925;-59
2021/07/23 06:20:03;;;;;;;;;;;23.00;71.70;;;;;;5193513;28;19932;-59
2021/07/23 06:22:35;;;;;;;;;;;23.00;71.60;;;;;;5195756;28;19925;-58
2021/07/23 06:25:08;;;;;;;;;;;23.00;71.60;;;;;;5189381;28;19924;-56
2021/07/23 06:27:40;;;;;;;;;;;23.00;71.70;;;;;;5190397;28;19925;-58
2021/07/23 06:30:13;;;;;;;;;;;22.90;71.50;;;;;;5194134;28;19925;-59
2021/07/23 06:32:45;;;;;;;;;;;22.90;71.50;;;;;;5215672;28;19932;-59
2021/07/23 06:35:17;;;;;;;;;;;22.90;71.50;;;;;;5191557;28;19931;-60
2021/07/23 06:37:49;;;;;;;;;;;22.90;71.50;;;;;;5193799;28;19925;-59
2021/07/23 06:40:22;;;;;;;;;;;22.90;71.60;;;;;;5191048;28;19932;-60
2021/07/23 06:42:54;;;;;;;;;;;23.00;71.70;;;;;;5195288;28;19929;-59
2021/07/23 06:45:26;;;;;;;;;;;22.90;71.70;;;;;;5191687;28;20381;-59
2021/07/23 06:47:58;;;;;;;;;;;23.00;71.70;;;;;;5199093;28;19936;-60
2021/07/23 06:50:33;;;;;;;;;;;23.00;72.00;;;;;;5196956;28;19929;-56
2021/07/23 06:53:08;;;;;;;;;;;23.00;71.90;;;;;;5196062;28;19928;-60
2021/07/23 06:55:41;;;;;;;;;;;23.00;71.80;;;;;;5195105;28;19940;-60
2021/07/23 06:58:13;;;;;;;;;;;23.10;71.80;;;;;;5203173;28;19932;-58
2021/07/23 07:00:45;;;;;;;;;;;23.10;71.80;;;;;;5196003;28;19928;-60
2021/07/23 07:03:17;;;;;;;;;;;23.10;71.70;;;;;;5209072;28;19920;-59
2021/07/23 07:05:50;;;;;;;;;;;23.10;71.80;;;;;;5191492;28;20036;-59
2021/07/23 07:08:23;;;;;;;;;;;23.20;71.70;;;;;;5193015;28;19924;-60
2021/07/23 07:10:55;;;;;;;;;;;23.20;71.50;;;;;;5214266;28;19940;-58
2021/07/23 07:13:34;;;;;;;;;;;23.20;71.60;;;;;;5192034;28;19925;-58
2021/07/23 07:16:07;;;;;;;;;;;23.20;71.70;;;;;;5202447;28;19932;-60
2021/07/23 07:18:41;;;;;;;;;;;23.20;71.80;;;;;;5200425;28;19949;-59
2021/07/23 07:21:14;;;;;;;;;;;23.30;71.80;;;;;;5203426;28;19928;-58
2021/07/23 07:23:46;;;;;;;;;;;23.30;71.80;;;;;;5196621;28;19925;-60
2021/07/23 07:26:18;;;;;;;;;;;23.30;71.70;;;;;;5196031;28;19925;-59
2021/07/23 07:28:50;;;;;;;;;;;23.40;71.70;;;;;;5201040;28;19928;-59
2021/07/23 07:31:23;;;;;;;;;;;23.40;71.70;;;;;;5170503;28;19928;-59
2021/07/23 07:33:55;;;;;;;;;;;23.40;71.70;;;;;;5198765;28;19928;-59
2021/07/23 07:36:27;;;;;;;;;;;23.40;71.60;;;;;;5211297;28;19924;-59
2021/07/23 07:39:00;;;;;;;;;;;23.50;71.70;;;;;;5203136;28;19921;-60
2021/07/23 07:41:32;;;;;;;;;;;23.50;71.60;;;;;;5205372;28;19929;-59
2021/07/23 07:44:05;;;;;;;;;;;23.50;71.60;;;;;;5202145;28;19935;-59
2021/07/23 07:46:37;;;;;;;;;;;23.50;71.60;;;;;;5200413;28;19925;-59
2021/07/23 07:49:10;;;;;;;;;;;23.50;71.50;;;;;;5188049;28;20091;-58
2021/07/23 07:51:42;;;;;;;;;;;23.60;71.40;;;;;;5194023;28;19929;-60
2021/07/23 07:54:14;;;;;;;;;;;23.60;71.50;;;;;;5196583;28;20420;-60
2021/07/23 07:56:46;;;;;;;;;;;23.60;71.50;;;;;;5190928;28;19932;-60
2021/07/23 07:59:18;;;;;;;;;;;23.60;71.50;;;;;;5177538;28;19932;-59
2021/07/23 08:01:51;;;;;;;;;;;23.60;71.50;;;;;;5202619;28;20305;-59
2021/07/23 08:04:23;;;;;;;;;;;23.60;71.40;;;;;;5193907;28;20572;-60
2021/07/23 08:06:55;;;;;;;;;;;23.70;71.40;;;;;;5174554;28;19929;-60
2021/07/23 08:09:35;;;;;;;;;;;23.70;71.40;;;;;;5178118;28;20282;-60
2021/07/23 08:12:07;;;;;;;;;;;23.70;71.30;;;;;;5197587;28;20271;-56
2021/07/23 08:14:39;;;;;;;;;;;23.70;71.20;;;;;;5194379;28;20344;-59
2021/07/23 08:17:12;;;;;;;;;;;23.70;71.20;;;;;;5193558;28;20308;-60
2021/07/23 08:19:44;;;;;;;;;;;23.70;71.10;;;;;;5195690;28;19936;-59
2021/07/23 08:22:17;;;;;;;;;;;23.70;71.10;;;;;;5195314;28;19925;-58
2021/07/23 08:24:51;;;;;;;;;;;23.80;71.10;;;;;;5192662;28;19928;-59
2021/07/23 08:27:24;;;;;;;;;;;23.80;71.10;;;;;;5196664;28;19929;-58
2021/07/23 08:29:58;;;;;;;;;;;23.80;70.90;;;;;;5201590;28;19936;-58
2021/07/23 08:32:36;;;;;;;;;;;23.80;70.90;;;;;;5198219;28;20163;-59
2021/07/23 08:35:09;;;;;;;;;;;23.80;70.30;;;;;;5194019;28;19928;-58
2021/07/23 08:37:41;;;;;;;;;;;23.80;70.00;;;;;;5196931;28;19932;-58
2021/07/23 08:40:13;;;;;;;;;;;23.80;69.90;;;;;;5196996;28;19948;-59
2021/07/23 08:42:47;;;;;;;;;;;23.80;70.00;;;;;;5186464;28;20320;-60
2021/07/23 08:45:20;;;;;;;;;;;23.80;69.70;;;;;;5197921;28;19952;-60
2021/07/23 08:47:53;;;;;;;;;;;23.80;69.70;;;;;;5196775;28;19929;-58
2021/07/23 08:50:25;;;;;;;;;;;23.80;69.70;;;;;;5197898;28;19929;-59
2021/07/23 08:52:57;;;;;;;;;;;23.80;69.90;;;;;;5197328;28;19925;-60
2021/07/23 08:55:34;;;;;;;;;;;23.80;69.90;;;;;;5186994;28;19924;-60
2021/07/23 08:58:07;;;;;;;;;;;23.80;70.10;;;;;;5199532;28;19928;-60
2021/07/23 09:00:39;;;;;;;;;;;23.90;70.10;;;;;;5197396;28;21120;-59
2021/07/23 09:03:12;;;;;;;;;;;23.90;70.30;;;;;;5197609;28;20013;-59
2021/07/23 09:05:45;;;;;;;;;;;23.90;70.20;;;;;;5211657;28;19933;-60
2021/07/23 09:08:18;;;;;;;;;;;23.90;70.20;;;;;;5197115;28;19921;-59
2021/07/23 09:11:04;;;;;;;;;;;23.90;70.10;;;;;;5195575;28;20396;-59
2021/07/23 09:13:36;;;;;;;;;;;23.90;69.90;;;;;;5198842;28;19932;-57
2021/07/23 09:16:25;;;;;;;;;;;23.90;69.70;;;;;;5183625;28;19929;-59
2021/07/23 09:19:05;;;;;;;;;;;23.90;69.80;;;;;;5177771;28;24491;-58
2021/07/23 09:21:38;;;;;;;;;;;23.90;69.80;;;;;;5194753;28;19936;-60
2021/07/23 09:24:10;;;;;;;;;;;24.00;69.90;;;;;;5198656;28;19925;-59
2021/07/23 09:26:44;;;;;;;;;;;24.00;69.50;;;;;;5203529;28;19925;-59
2021/07/23 09:29:16;;;;;;;;;;;24.00;69.50;;;;;;5195761;28;19925;-60
2021/07/23 09:32:05;;;;;;;;;;;24.00;69.60;;;;;;5191042;28;19928;-60
2021/07/23 09:34:37;;;;;;;;;;;24.00;69.60;;;;;;5198720;28;19925;-60
2021/07/23 09:37:10;;;;;;;;;;;24.00;69.60;;;;;;5191118;28;20277;-59
2021/07/23 09:39:58;;;;;;;;;;;24.00;69.50;;;;;;5195970;28;19931;-58
2021/07/23 09:42:30;;;;;;;;;;;24.00;69.40;;;;;;5202392;28;19927;-58
2021/07/23 09:45:02;;;;;;;;;;;24.00;69.00;;;;;;5178499;28;19925;-58
2021/07/23 09:47:35;;;;;;;;;;;24.00;69.20;;;;;;5195774;28;19958;-58
2021/07/23 09:50:07;;;;;;;;;;;24.10;69.20;;;;;;5185277;28;20447;-57
2021/07/23 09:52:39;;;;;;;;;;;24.10;69.10;;;;;;5183410;28;20030;-60
2021/07/23 09:55:11;;;;;;;;;;;24.10;69.00;;;;;;5194510;28;20313;-58
2021/07/23 09:57:46;;;;;;;;;;;24.10;68.90;;;;;;5184815;28;19924;-59
2021/07/23 10:00:22;;;;;;;;;;;24.10;68.90;;;;;;5194799;28;19947;-58
2021/07/23 10:02:55;;;;;;;;;;;24.10;68.80;;;;;;5194716;28;19936;-59
2021/07/23 10:05:34;;;;;;;;;;;24.20;68.70;;;;;;5194098;28;19940;-59
2021/07/23 10:08:07;;;;;;;;;;;24.20;68.60;;;;;;5197272;28;20424;-57
2021/07/23 10:10:42;;;;;;;;;;;24.20;68.50;;;;;;5170536;28;20864;-59
2021/07/23 10:13:16;;;;;;;;;;;24.20;68.40;;;;;;5188811;28;20417;-61
2021/07/23 10:15:50;;;;;;;;;;;24.20;68.40;;;;;;5196541;28;19932;-58
2021/07/23 10:18:38;;;;;;;;;;;24.20;68.00;;;;;;5201050;28;19925;-59
2021/07/23 10:21:10;;;;;;;;;;;24.30;67.90;;;;;;5199834;28;19928;-59
2021/07/23 10:23:44;;;;;;;;;;;24.30;67.80;;;;;;5197016;28;19957;-60
2021/07/23 10:26:17;;;;;;;;;;;24.30;67.70;;;;;;5199749;28;20492;-59
2021/07/23 10:28:53;;;;;;;;;;;24.30;67.60;;;;;;5185295;28;19932;-59
2021/07/23 10:31:27;;;;;;;;;;;24.30;67.50;;;;;;5197019;28;20313;-57
2021/07/23 10:34:00;;;;;;;;;;;24.30;67.20;;;;;;5196470;28;19928;-58
2021/07/23 10:36:36;;;;;;;;;;;24.30;67.20;;;;;;5207878;28;20328;-60
2021/07/23 10:39:10;;;;;;;;;;;24.30;67.00;;;;;;5192747;28;19924;-60
2021/07/23 10:42:02;;;;;;;;;;;24.40;67.00;;;;;;5196289;28;19932;-59
2021/07/23 10:44:36;;;;;;;;;;;24.40;67.00;;;;;;5196764;28;20665;-59
2021/07/23 10:47:10;;;;;;;;;;;24.40;67.10;;;;;;5191762;28;19925;-60
2021/07/23 10:49:45;;;;;;;;;;;24.40;67.20;;;;;;5194069;28;19967;-61
2021/07/23 10:52:27;;;;;;;;;;;24.40;67.30;;;;;;5187634;28;19920;-61
2021/07/23 10:55:20;;;;;;;;;;;24.40;67.30;;;;;;5197569;28;19932;-62
2021/07/23 10:58:04;;;;;;;;;;;24.40;67.30;;;;;;5196986;28;20599;-61
2021/07/23 11:00:50;;;;;;;;;;;24.40;67.30;;;;;;5197197;28;19929;-61
2021/07/23 11:03:35;;;;;;;;;;;24.50;67.30;;;;;;5205962;28;19925;-61
2021/07/23 11:06:27;;;;;;;;;;;24.50;67.10;;;;;;5197908;28;19928;-62
2021/07/23 11:09:04;;;;;;;;;;;24.50;67.20;;;;;;5191958;28;19924;-62
2021/07/23 11:11:36;;;;;;;;;;;24.50;67.30;;;;;;5194263;28;20282;-61
2021/07/23 11:14:13;;;;;;;;;;;24.50;67.20;;;;;;5189096;28;19947;-61
2021/07/23 11:16:46;;;;;;;;;;;24.50;67.00;;;;;;5186780;28;19928;-61
2021/07/23 11:19:20;;;;;;;;;;;24.50;67.10;;;;;;5185945;28;20337;-61
2021/07/23 11:21:52;;;;;;;;;;;24.50;67.10;;;;;;5179770;28;20310;-61
2021/07/23 11:24:32;;;;;;;;;;;24.60;67.20;;;;;;5176868;28;19959;-61
2021/07/23 11:27:04;;;;;;;;;;;24.60;67.20;;;;;;5174818;28;22886;-61
2021/07/23 11:29:38;;;;;;;;;;;24.60;67.00;;;;;;5186940;28;20379;-61
2021/07/23 11:32:12;;;;;;;;;;;24.60;67.20;;;;;;5185939;28;20341;-61
2021/07/23 11:34:44;;;;;;;;;;;24.60;66.80;;;;;;5182442;28;19935;-61
2021/07/23 11:37:37;;;;;;;;;;;24.60;66.70;;;;;;5157958;28;19924;-61
2021/07/23 11:40:11;;;;;;;;;;;24.70;66.40;;;;;;5180633;28;19925;-61
2021/07/23 11:42:45;;;;;;;;;;;24.70;66.00;;;;;;5177039;28;20412;-61
2021/07/23 11:45:19;;;;;;;;;;;24.80;66.00;;;;;;5163757;28;19939;-61
2021/07/23 11:47:53;;;;;;;;;;;24.90;65.60;;;;;;5168748;28;19928;-61
2021/07/23 11:50:25;;;;;;;;;;;24.90;65.30;;;;;;5168719;28;20230;-61
2021/07/23 11:52:58;;;;;;;;;;;25.00;65.30;;;;;;5152747;28;20206;-64
2021/07/23 11:55:37;;;;;;;;;;;25.10;64.80;;;;;;5154764;28;19932;-66
2021/07/23 11:58:20;;;;;;;;;;;25.10;64.80;;;;;;5156010;28;19940;-65
2021/07/23 12:00:52;;;;;;;;;;;25.20;64.30;;;;;;5166412;28;20536;-67
2021/07/23 12:03:25;;;;;;;;;;;25.30;64.40;;;;;;5170987;28;19936;-66
2021/07/23 12:06:07;;;;;;;;;;;25.30;64.40;;;;;;5169909;28;20830;-67
2021/07/23 12:08:46;;;;;;;;;;;25.40;64.70;;;;;;5177848;28;19929;-65
2021/07/23 12:11:24;;;;;;;;;;;25.40;64.70;;;;;;5174988;28;19928;-66
2021/07/23 12:14:07;;;;;;;;;;;25.50;64.50;;;;;;5182973;28;19936;-66
2021/07/23 12:16:42;;;;;;;;;;;25.50;64.50;;;;;;5168779;28;19928;-64
2021/07/23 12:19:19;;;;;;;;;;;25.60;64.40;;;;;;5168366;28;19928;-66
2021/07/23 12:22:07;;;;;;;;;;;25.60;64.40;;;;;;5156596;28;19928;-67
2021/07/23 12:24:39;;;;;;;;;;;25.70;64.10;;;;;;5181867;28;19928;-66
2021/07/23 12:27:16;;;;;;;;;;;25.80;64.00;;;;;;5178325;28;20433;-67
2021/07/23 12:29:49;;;;;;;;;;;25.80;63.90;;;;;;5183223;28;19924;-66
2021/07/23 12:32:23;;;;;;;;;;;25.90;64.10;;;;;;5150383;28;19935;-66
2021/07/23 12:34:56;;;;;;;;;;;26.00;64.00;;;;;;5184649;28;19928;-66
2021/07/23 12:37:29;;;;;;;;;;;26.00;63.90;;;;;;5180201;28;19929;-66
2021/07/23 12:40:02;;;;;;;;;;;26.10;63.80;;;;;;5169913;28;19932;-66
2021/07/23 12:42:34;;;;;;;;;;;26.10;63.70;;;;;;5159611;28;21810;-66
2021/07/23 12:45:07;;;;;;;;;;;26.20;63.80;;;;;;5174654;28;19932;-66
2021/07/23 12:47:46;;;;;;;;;;;26.20;63.70;;;;;;5165102;28;19928;-66
2021/07/23 12:50:18;;;;;;;;;;;26.30;64.10;;;;;;5155421;28;19925;-66
2021/07/23 12:52:51;;;;;;;;;;;26.40;63.70;;;;;;5153231;28;20695;-66
2021/07/23 12:55:23;;;;;;;;;;;26.40;63.50;;;;;;5166618;28;19936;-66
2021/07/23 12:57:55;;;;;;;;;;;26.40;63.60;;;;;;5170875;28;20408;-66
2021/07/23 13:00:28;;;;;;;;;;;26.50;63.60;;;;;;5146866;28;19925;-67
2021/07/23 13:03:00;;;;;;;;;;;26.50;64.00;;;;;;5167706;28;19929;-66
2021/07/23 13:05:33;;;;;;;;;;;26.50;63.60;;;;;;5166939;28;20377;-66
2021/07/23 13:08:06;;;;;;;;;;;26.60;63.60;;;;;;5170546;28;19929;-66
2021/07/23 13:10:38;;;;;;;;;;;26.60;63.50;;;;;;5174514;28;20697;-66
2021/07/23 13:13:10;;;;;;;;;;;26.60;63.40;;;;;;5161750;28;19925;-65
2021/07/23 13:15:42;;;;;;;;;;;26.60;63.40;;;;;;5176289;28;19925;-66
2021/07/23 13:18:15;;;;;;;;;;;26.70;63.40;;;;;;5154698;28;19936;-66
2021/07/23 13:20:47;;;;;;;;;;;26.70;63.40;;;;;;5182021;28;19925;-66
2021/07/23 13:23:19;;;;;;;;;;;26.70;63.50;;;;;;5175009;28;20328;-65
2021/07/23 13:30:16;;;;;;;;;;;26.80;63.40;;;;;;5149029;28;20738;-64
2021/07/23 13:32:48;;;;;;;;;;;26.80;63.00;;;;;;5137154;28;20240;-64
2021/07/23 13:35:21;;;;;;;;;;;26.90;63.00;;;;;;5164467;28;19932;-63
2021/07/23 13:37:55;;;;;;;;;;;26.90;63.20;;;;;;5143415;28;19951;-65
2021/07/23 13:40:28;;;;;;;;;;;26.90;63.20;;;;;;5169847;28;19924;-63
2021/07/23 13:43:07;;;;;;;;;;;26.90;63.30;;;;;;5176320;28;19924;-64
2021/07/23 13:45:40;;;;;;;;;;;26.90;63.30;;;;;;5176825;28;19932;-64
2021/07/23 13:48:12;;;;;;;;;;;26.90;63.30;;;;;;5167131;28;19925;-63
2021/07/23 13:50:44;;;;;;;;;;;26.90;63.30;;;;;;5165769;28;19959;-64
2021/07/23 13:53:16;;;;;;;;;;;26.90;63.30;;;;;;5170366;28;19929;-64
2021/07/23 13:55:49;;;;;;;;;;;26.90;63.40;;;;;;5154163;28;19940;-63
2021/07/23 13:58:21;;;;;;;;;;;26.90;63.30;;;;;;5147121;28;19935;-63
2021/07/23 14:00:53;;;;;;;;;;;26.90;63.30;;;;;;5169498;28;19925;-63
2021/07/23 14:03:26;;;;;;;;;;;26.90;63.30;;;;;;5152330;28;19928;-64
2021/07/23 14:05:58;;;;;;;;;;;27.00;63.40;;;;;;5166814;28;19967;-65
2021/07/23 14:08:30;;;;;;;;;;;27.00;63.40;;;;;;5165604;28;19929;-65
2021/07/23 14:11:02;;;;;;;;;;;27.00;63.40;;;;;;5153649;28;19925;-63
2021/07/23 14:13:35;;;;;;;;;;;27.00;63.40;;;;;;5168425;28;20780;-64
2021/07/23 14:16:07;;;;;;;;;;;27.00;63.40;;;;;;5165812;28;19931;-64
2021/07/23 14:18:40;;;;;;;;;;;27.00;63.30;;;;;;5160784;28;20612;-64
2021/07/23 14:21:13;;;;;;;;;;;27.10;63.40;;;;;;5150574;28;19936;-64
2021/07/23 14:23:46;;;;;;;;;;;27.10;63.10;;;;;;5166707;28;19929;-66
2021/07/23 14:26:21;;;;;;;;;;;27.10;62.90;;;;;;5158252;28;19925;-65
2021/07/23 14:28:54;;;;;;;;;;;27.20;63.20;;;;;;5166268;28;19924;-63
2021/07/23 14:31:26;;;;;;;;;;;27.20;63.10;;;;;;5169139;28;19924;-65
2021/07/23 14:33:59;;;;;;;;;;;27.20;62.90;;;;;;5168732;28;19925;-66
2021/07/23 14:36:32;;;;;;;;;;;27.20;62.80;;;;;;5173686;28;19932;-65
2021/07/23 14:39:04;;;;;;;;;;;27.20;61.60;;;;;;5183092;28;20372;-64
2021/07/23 14:41:36;;;;;;;;;;;27.20;61.80;;;;;;5180233;28;19928;-65
2021/07/23 14:44:09;;;;;;;;;;;27.20;62.20;;;;;;5179209;28;19925;-65
2021/07/23 14:46:41;;;;;;;;;;;27.20;61.80;;;;;;5181078;28;20308;-64
2021/07/23 14:49:14;;;;;;;;;;;27.10;61.60;;;;;;5176498;28;19948;-65
2021/07/23 14:51:46;;;;;;;;;;;27.10;61.40;;;;;;5190637;28;19921;-64
2021/07/23 14:54:18;;;;;;;;;;;27.00;61.60;;;;;;5172746;28;19932;-65
2021/07/23 14:56:51;;;;;;;;;;;27.00;61.60;;;;;;5165002;28;20533;-65
2021/07/23 14:59:23;;;;;;;;;;;27.00;61.50;;;;;;5178656;28;19947;-65
2021/07/23 15:01:57;;;;;;;;;;;27.00;61.10;;;;;;5175355;28;20487;-65
2021/07/23 15:04:29;;;;;;;;;;;26.90;60.60;;;;;;5163818;28;19932;-65